Time;durP1;ratioP1;P1;durP2;ratioP2;P2;SDS_P1;SDS_P2;PMS_P1;PMS_P2;Temp;Humidity;BMP_temperature;BMP_pressure;BME280_temperature;BME280_humidity;BME280_pressure;Samples;Min_cycle;Max_cycle;Signal;HPM_P1;HPM_P2
2022/03/31 00:00:53;;;;;;;4.97;3.93;;;15.10;70.80;;;;;;5030368;28;20474;-46
2022/03/31 00:03:22;;;;;;;3.90;3.60;;;15.10;70.70;;;;;;5030920;28;20947;-47
2022/03/31 00:05:51;;;;;;;3.93;3.53;;;15.20;71.00;;;;;;5047186;28;20463;-48
2022/03/31 00:08:21;;;;;;;4.23;3.83;;;15.10;70.90;;;;;;5038402;28;20455;-48
2022/03/31 00:10:50;;;;;;;4.43;3.53;;;15.10;70.80;;;;;;5030939;28;20494;-48
2022/03/31 00:13:22;;;;;;;4.77;4.23;;;15.10;70.80;;;;;;5031634;28;20432;-49
2022/03/31 00:15:51;;;;;;;4.60;3.67;;;15.10;71.00;;;;;;5037077;28;20525;-47
2022/03/31 00:18:20;;;;;;;4.00;3.60;;;15.10;71.10;;;;;;5050153;28;20794;-47
2022/03/31 00:20:50;;;;;;;4.70;4.30;;;15.10;71.00;;;;;;5034100;28;20468;-47
2022/03/31 00:23:19;;;;;;;3.40;3.20;;;15.10;70.90;;;;;;5030288;28;20496;-48
2022/03/31 00:25:47;;;;;;;3.30;3.00;;;15.10;71.00;;;;;;5030645;28;20878;-48
2022/03/31 00:28:15;;;;;;;3.90;3.23;;;15.10;71.00;;;;;;5039439;28;20422;-47
2022/03/31 00:30:45;;;;;;;3.73;3.37;;;15.10;71.00;;;;;;5029900;28;20519;-47
2022/03/31 00:33:13;;;;;;;4.17;3.87;;;15.10;71.10;;;;;;5030745;28;20507;-48
2022/03/31 00:35:41;;;;;;;3.70;3.40;;;15.10;71.00;;;;;;5028795;28;20464;-47
2022/03/31 00:38:10;;;;;;;4.30;3.80;;;15.10;71.00;;;;;;5030750;28;20518;-48
2022/03/31 00:40:39;;;;;;;3.70;3.40;;;15.10;71.00;;;;;;5030211;28;20467;-47
2022/03/31 00:43:08;;;;;;;4.80;3.53;;;15.10;71.10;;;;;;5030653;28;20459;-47
2022/03/31 00:45:46;;;;;;;5.37;4.17;;;15.10;71.00;;;;;;5029393;28;21048;-46
2022/03/31 00:48:18;;;;;;;3.90;3.50;;;15.10;71.10;;;;;;5030339;28;20959;-47
2022/03/31 00:50:47;;;;;;;4.80;4.40;;;15.00;71.00;;;;;;5030408;28;20882;-47
2022/03/31 00:53:15;;;;;;;3.40;3.10;;;15.10;71.10;;;;;;5029722;28;20467;-49
2022/03/31 00:55:56;;;;;;;5.60;3.73;;;15.00;71.00;;;;;;5029856;28;20504;-46
2022/03/31 00:58:24;;;;;;;4.30;3.90;;;15.00;71.00;;;;;;5030521;28;20446;-48
2022/03/31 01:00:52;;;;;;;4.47;3.90;;;15.00;71.10;;;;;;5030411;28;20535;-47
2022/03/31 01:03:22;;;;;;;4.20;3.80;;;15.00;71.10;;;;;;5031165;28;20482;-47
2022/03/31 01:05:50;;;;;;;4.07;3.53;;;15.00;71.20;;;;;;5029721;28;20547;-47
2022/03/31 01:08:18;;;;;;;3.17;2.97;;;15.10;71.20;;;;;;5029182;28;20472;-47
2022/03/31 01:10:49;;;;;;;3.50;3.20;;;15.00;71.20;;;;;;5050303;28;20463;-47
2022/03/31 01:13:17;;;;;;;4.30;3.90;;;15.00;71.30;;;;;;5050095;28;20456;-46
2022/03/31 01:15:45;;;;;;;3.33;3.03;;;15.00;71.20;;;;;;5039623;28;20495;-45
2022/03/31 01:18:13;;;;;;;3.70;3.40;;;15.00;71.30;;;;;;5029352;28;20987;-47
2022/03/31 01:20:43;;;;;;;5.47;3.47;;;15.00;71.30;;;;;;5027700;28;20471;-48
2022/03/31 01:23:14;;;;;;;3.67;3.37;;;15.00;71.30;;;;;;5029716;28;20987;-46
2022/03/31 01:25:42;;;;;;;3.33;3.13;;;15.00;71.40;;;;;;5029918;28;20900;-46
2022/03/31 01:28:11;;;;;;;3.87;3.57;;;15.00;71.40;;;;;;5038141;28;20436;-47
2022/03/31 01:30:39;;;;;;;3.57;3.27;;;15.00;71.30;;;;;;5030038;28;20839;-46
2022/03/31 01:33:07;;;;;;;3.37;3.17;;;15.00;71.40;;;;;;5029215;28;20456;-48
2022/03/31 01:35:35;;;;;;;3.23;2.93;;;15.00;71.50;;;;;;5029629;28;20475;-47
2022/03/31 01:38:04;;;;;;;3.63;3.33;;;15.00;71.40;;;;;;5029549;28;20448;-45
2022/03/31 01:40:35;;;;;;;4.23;3.93;;;15.00;71.40;;;;;;5028964;28;20494;-48
2022/03/31 01:43:03;;;;;;;3.57;3.27;;;15.00;71.50;;;;;;5029899;28;20935;-46
2022/03/31 01:45:31;;;;;;;4.70;4.30;;;15.00;71.40;;;;;;5029425;28;20511;-46
2022/03/31 01:48:04;;;;;;;4.63;4.23;;;15.00;71.40;;;;;;5033748;28;20867;-47
2022/03/31 01:50:33;;;;;;;4.27;3.87;;;15.00;71.40;;;;;;5030056;28;20738;-46
2022/03/31 01:53:01;;;;;;;3.83;3.37;;;15.00;71.50;;;;;;5029123;28;20891;-48
2022/03/31 01:55:29;;;;;;;4.10;3.70;;;14.90;71.40;;;;;;5029479;28;20882;-48
2022/03/31 01:57:59;;;;;;;4.30;3.60;;;14.90;71.50;;;;;;5029275;28;20432;-48
2022/03/31 02:00:27;;;;;;;4.77;3.80;;;14.90;71.50;;;;;;5029292;28;20496;-48
2022/03/31 02:02:55;;;;;;;4.00;3.60;;;15.00;71.50;;;;;;5029156;28;20476;-47
2022/03/31 02:05:23;;;;;;;4.43;4.13;;;14.90;71.50;;;;;;5029347;28;20468;-48
2022/03/31 02:07:54;;;;;;;4.87;3.60;;;14.90;71.40;;;;;;5029057;28;20440;-46
2022/03/31 02:10:25;;;;;;;4.10;3.70;;;14.90;71.50;;;;;;5029766;28;20464;-45
2022/03/31 02:12:54;;;;;;;4.40;3.83;;;14.90;71.60;;;;;;5029406;28;20471;-48
2022/03/31 02:15:24;;;;;;;3.47;3.17;;;14.90;71.50;;;;;;5029340;28;20463;-49
2022/03/31 02:17:55;;;;;;;2.90;2.70;;;14.90;71.50;;;;;;5028630;28;20470;-47
2022/03/31 02:20:23;;;;;;;3.57;3.27;;;14.90;71.70;;;;;;5028302;28;20539;-47
2022/03/31 02:22:51;;;;;;;6.80;4.03;;;14.90;71.70;;;;;;5029096;28;20688;-47
2022/03/31 02:25:20;;;;;;;5.37;3.73;;;14.90;71.70;;;;;;5028772;28;20468;-47
2022/03/31 02:27:52;;;;;;;4.07;3.70;;;14.90;71.70;;;;;;5045192;28;20941;-47
2022/03/31 02:30:21;;;;;;;3.50;3.20;;;14.90;71.70;;;;;;5053094;28;20467;-46
2022/03/31 02:32:51;;;;;;;3.70;3.27;;;14.90;71.70;;;;;;5035634;28;20824;-49
2022/03/31 02:35:19;;;;;;;3.77;3.43;;;14.90;71.80;;;;;;5052075;28;20463;-48
2022/03/31 02:37:48;;;;;;;4.00;3.70;;;14.90;71.80;;;;;;5033818;28;20436;-48
2022/03/31 02:40:16;;;;;;;3.10;2.77;;;14.80;71.70;;;;;;5032354;28;21045;-48
2022/03/31 02:42:44;;;;;;;3.77;3.23;;;14.80;71.80;;;;;;5032778;28;20482;-46
2022/03/31 02:45:12;;;;;;;3.47;3.17;;;14.80;71.80;;;;;;5032247;28;20546;-48
2022/03/31 02:47:40;;;;;;;3.80;3.37;;;14.80;71.80;;;;;;5032285;28;20979;-47
2022/03/31 02:50:10;;;;;;;3.53;3.23;;;14.80;71.80;;;;;;5044218;28;20534;-48
2022/03/31 02:55:28;;;;;;;3.90;3.07;;;14.90;72.00;;;;;;5031893;28;20460;-46
2022/03/31 02:57:57;;;;;;;3.27;2.97;;;14.80;71.90;;;;;;5032723;28;20850;-50
2022/03/31 03:00:25;;;;;;;3.60;3.30;;;14.80;72.00;;;;;;5031503;28;20562;-48
2022/03/31 03:02:53;;;;;;;3.43;2.90;;;14.80;72.00;;;;;;5034135;28;20432;-47
2022/03/31 03:05:23;;;;;;;3.60;2.67;;;14.80;72.00;;;;;;5043915;28;20830;-47
2022/03/31 03:07:51;;;;;;;3.43;3.13;;;14.80;72.10;;;;;;5049203;28;20550;-47
2022/03/31 03:10:19;;;;;;;2.90;2.60;;;14.80;72.10;;;;;;5052436;28;20466;-45
2022/03/31 03:12:48;;;;;;;3.77;3.47;;;14.80;72.10;;;;;;5052263;28;20447;-47
2022/03/31 03:15:17;;;;;;;2.70;2.50;;;14.80;72.10;;;;;;5051472;28;20550;-48
2022/03/31 03:17:48;;;;;;;3.37;3.07;;;14.80;72.10;;;;;;5041365;28;20803;-45
2022/03/31 03:20:17;;;;;;;3.93;2.90;;;14.80;72.10;;;;;;5032005;28;20552;-47
2022/03/31 03:22:48;;;;;;;4.00;3.70;;;14.80;72.20;;;;;;5031574;28;20569;-46
2022/03/31 03:25:18;;;;;;;2.93;2.73;;;14.80;72.30;;;;;;5031840;28;20460;-50
2022/03/31 03:27:48;;;;;;;3.50;3.20;;;14.80;72.20;;;;;;5033703;28;20499;-46
2022/03/31 03:30:18;;;;;;;3.50;3.20;;;14.80;72.30;;;;;;5031932;28;20478;-46
2022/03/31 03:32:46;;;;;;;3.80;3.50;;;14.80;72.20;;;;;;5031130;28;20823;-48
2022/03/31 03:35:17;;;;;;;3.83;3.53;;;14.70;72.10;;;;;;5031722;28;20542;-47
2022/03/31 03:37:47;;;;;;;3.47;3.17;;;14.80;72.20;;;;;;5031813;28;20465;-48
2022/03/31 03:40:16;;;;;;;3.33;3.00;;;14.70;72.30;;;;;;5031857;28;20459;-47
2022/03/31 03:42:44;;;;;;;4.13;3.10;;;14.70;72.20;;;;;;5032175;28;20966;-48
2022/03/31 03:45:13;;;;;;;3.80;3.30;;;14.70;72.30;;;;;;5031567;28;20448;-47
2022/03/31 03:47:41;;;;;;;3.40;3.10;;;14.70;72.30;;;;;;5030912;28;20745;-47
2022/03/31 03:50:10;;;;;;;3.37;3.07;;;14.70;72.40;;;;;;5031788;28;20462;-47
2022/03/31 03:52:39;;;;;;;3.60;3.30;;;14.70;72.30;;;;;;5030928;28;20494;-47
2022/03/31 03:55:10;;;;;;;4.00;3.60;;;14.70;72.40;;;;;;5030922;28;20963;-48
2022/03/31 03:57:38;;;;;;;4.90;3.40;;;14.70;72.40;;;;;;5031537;28;20490;-48
2022/03/31 04:00:09;;;;;;;3.80;3.40;;;14.70;72.40;;;;;;5031627;28;20535;-47
2022/03/31 04:02:38;;;;;;;4.10;3.70;;;14.70;72.40;;;;;;5031134;28;20935;-48
2022/03/31 04:05:07;;;;;;;3.33;3.03;;;14.70;72.40;;;;;;5030325;28;20455;-46
2022/03/31 04:07:35;;;;;;;3.70;2.83;;;14.70;72.40;;;;;;5029838;28;20456;-46
2022/03/31 04:10:04;;;;;;;3.87;3.47;;;14.70;72.60;;;;;;5031184;28;20582;-47
2022/03/31 04:12:33;;;;;;;4.47;4.17;;;14.70;72.40;;;;;;5032068;28;20424;-48
2022/03/31 04:15:02;;;;;;;4.17;3.77;;;14.60;72.30;;;;;;5030758;28;20531;-46
2022/03/31 04:17:30;;;;;;;4.07;3.77;;;14.70;72.50;;;;;;5030943;28;20487;-48
2022/03/31 04:19:58;;;;;;;4.60;3.50;;;14.60;72.40;;;;;;5030238;28;20431;-48
2022/03/31 04:22:27;;;;;;;3.77;3.47;;;14.60;72.40;;;;;;5040665;28;20543;-48
2022/03/31 04:24:55;;;;;;;4.73;3.80;;;14.60;72.40;;;;;;5033765;28;20901;-46
2022/03/31 04:27:23;;;;;;;4.20;3.80;;;14.60;72.50;;;;;;5042258;28;20502;-45
2022/03/31 04:29:52;;;;;;;5.47;3.40;;;14.70;72.60;;;;;;5030367;28;20878;-47
2022/03/31 04:32:20;;;;;;;3.90;3.60;;;14.60;72.40;;;;;;5034500;28;20485;-48
2022/03/31 04:34:48;;;;;;;6.20;3.93;;;14.60;72.40;;;;;;5041101;28;20542;-48
2022/03/31 04:37:16;;;;;;;3.77;3.47;;;14.60;72.40;;;;;;5030978;28;20569;-45
2022/03/31 04:39:45;;;;;;;4.00;3.10;;;14.60;72.50;;;;;;5030158;28;20432;-47
2022/03/31 04:42:13;;;;;;;4.47;3.70;;;14.60;72.40;;;;;;5031304;28;20452;-48
2022/03/31 04:44:41;;;;;;;3.77;3.47;;;14.60;72.60;;;;;;5029769;28;20460;-48
2022/03/31 04:47:11;;;;;;;4.33;3.83;;;14.60;72.60;;;;;;5029890;28;20982;-48
2022/03/31 04:49:39;;;;;;;5.10;3.80;;;14.60;72.60;;;;;;5030324;28;20462;-46
2022/03/31 04:52:08;;;;;;;3.93;3.63;;;14.60;72.70;;;;;;5029941;28;20460;-47
2022/03/31 04:54:43;;;;;;;3.47;3.17;;;14.60;72.60;;;;;;5030158;28;20444;-46
2022/03/31 04:57:12;;;;;;;4.17;3.80;;;14.60;72.60;;;;;;5030871;28;20590;-48
2022/03/31 04:59:41;;;;;;;4.30;3.57;;;14.60;72.70;;;;;;5029595;28;20443;-49
2022/03/31 05:02:11;;;;;;;3.47;3.17;;;14.60;72.70;;;;;;5030325;28;21017;-49
2022/03/31 05:04:38;;;;;;;4.17;3.77;;;14.50;72.60;;;;;;5029357;28;20896;-46
2022/03/31 05:07:08;;;;;;;4.40;4.00;;;14.50;72.70;;;;;;5030227;28;20479;-48
2022/03/31 05:09:36;;;;;;;4.03;3.63;;;14.50;72.70;;;;;;5029752;28;20807;-46
2022/03/31 05:12:06;;;;;;;4.13;3.73;;;14.50;72.70;;;;;;5029550;28;21049;-46
2022/03/31 05:14:34;;;;;;;3.83;3.47;;;14.50;72.80;;;;;;5029946;28;20459;-47
2022/03/31 05:17:02;;;;;;;3.97;3.60;;;14.50;72.80;;;;;;5034912;28;20921;-47
2022/03/31 05:19:32;;;;;;;4.07;3.67;;;14.50;72.70;;;;;;5050768;28;20549;-47
2022/03/31 05:22:00;;;;;;;4.40;4.00;;;14.50;72.80;;;;;;5043134;28;20472;-47
2022/03/31 05:24:28;;;;;;;3.63;2.97;;;14.50;72.80;;;;;;5049276;28;20477;-48
2022/03/31 05:26:56;;;;;;;5.73;5.23;;;14.50;72.80;;;;;;5049327;28;20990;-48
2022/03/31 05:29:24;;;;;;;4.50;4.07;;;14.50;72.80;;;;;;5049341;28;20426;-48
2022/03/31 05:31:53;;;;;;;4.40;4.00;;;14.50;72.80;;;;;;5035409;28;20494;-45
2022/03/31 05:34:21;;;;;;;4.10;3.67;;;14.50;72.80;;;;;;5049765;28;20988;-47
2022/03/31 05:36:51;;;;;;;4.20;3.80;;;14.50;72.80;;;;;;5049115;28;20486;-47
2022/03/31 05:39:19;;;;;;;3.60;3.30;;;14.50;72.90;;;;;;5029416;28;20451;-47
2022/03/31 05:41:47;;;;;;;4.07;3.77;;;14.50;72.90;;;;;;5035136;28;21043;-46
2022/03/31 05:44:15;;;;;;;3.63;3.20;;;14.50;73.00;;;;;;5050008;28;20480;-47
2022/03/31 05:46:44;;;;;;;3.40;3.10;;;14.50;73.00;;;;;;5043791;28;20474;-46
2022/03/31 05:49:15;;;;;;;4.17;3.77;;;14.40;73.00;;;;;;5029905;28;20503;-46
2022/03/31 05:51:43;;;;;;;3.13;2.77;;;14.40;72.90;;;;;;5029401;28;20555;-48
2022/03/31 05:54:12;;;;;;;3.30;3.00;;;14.40;73.00;;;;;;5029208;28;20468;-45
2022/03/31 05:56:43;;;;;;;3.90;3.50;;;14.40;73.00;;;;;;5039393;28;20517;-47
2022/03/31 05:59:11;;;;;;;3.47;3.17;;;14.40;73.10;;;;;;5050193;28;20431;-46
2022/03/31 06:01:39;;;;;;;3.50;3.20;;;14.40;73.10;;;;;;5041919;28;20550;-47
2022/03/31 06:04:08;;;;;;;8.47;4.83;;;14.40;73.00;;;;;;5047504;28;20455;-47
2022/03/31 06:06:36;;;;;;;4.97;4.13;;;14.40;73.00;;;;;;5048510;28;20564;-46
2022/03/31 06:09:04;;;;;;;4.03;3.63;;;14.40;72.90;;;;;;5035211;28;20566;-47
2022/03/31 06:11:33;;;;;;;4.07;3.67;;;14.40;73.10;;;;;;5051269;28;20830;-48
2022/03/31 06:14:01;;;;;;;4.70;4.30;;;14.40;73.00;;;;;;5048642;28;20549;-47
2022/03/31 06:16:30;;;;;;;4.00;3.70;;;14.40;73.10;;;;;;5040432;28;20877;-47
2022/03/31 06:18:59;;;;;;;4.00;3.60;;;14.40;73.10;;;;;;5032181;28;20807;-48
2022/03/31 06:21:27;;;;;;;4.33;3.97;;;14.30;72.90;;;;;;5049348;28;20506;-49
2022/03/31 06:23:55;;;;;;;5.00;4.30;;;14.40;73.10;;;;;;5046826;28;20558;-46
2022/03/31 06:26:23;;;;;;;4.50;3.30;;;14.40;73.10;;;;;;5052852;28;20467;-45
2022/03/31 06:28:53;;;;;;;4.70;4.00;;;14.40;73.00;;;;;;5053516;28;20454;-45
2022/03/31 06:31:23;;;;;;;4.57;4.17;;;14.30;73.10;;;;;;5050119;28;20492;-46
2022/03/31 06:33:52;;;;;;;4.30;3.90;;;14.30;72.90;;;;;;5033564;28;20463;-47
2022/03/31 06:36:21;;;;;;;6.20;3.60;;;14.30;73.00;;;;;;5036259;28;20459;-47
2022/03/31 06:38:49;;;;;;;6.20;4.50;;;14.30;73.10;;;;;;5037222;28;20530;-46
2022/03/31 06:41:18;;;;;;;4.47;4.07;;;14.30;72.90;;;;;;5033005;28;20456;-47
2022/03/31 06:43:48;;;;;;;4.50;4.00;;;14.30;73.00;;;;;;5033069;28;20436;-48
2022/03/31 06:46:18;;;;;;;6.00;3.90;;;14.30;73.00;;;;;;5032351;28;20870;-46
2022/03/31 06:48:48;;;;;;;5.07;3.50;;;14.30;73.10;;;;;;5033311;28;20468;-47
2022/03/31 06:51:17;;;;;;;4.43;4.03;;;14.30;73.10;;;;;;5032910;28;21042;-48
2022/03/31 06:53:46;;;;;;;5.90;5.10;;;14.30;73.10;;;;;;5032542;28;20474;-48
2022/03/31 06:56:16;;;;;;;4.27;3.87;;;14.30;73.10;;;;;;5032105;28;20489;-46
2022/03/31 06:58:45;;;;;;;4.80;4.30;;;14.30;74.30;;;;;;5033162;28;20416;-48
2022/03/31 07:01:13;;;;;;;3.60;3.30;;;14.20;73.00;;;;;;5036740;28;20566;-47
2022/03/31 07:03:44;;;;;;;4.13;3.40;;;14.20;73.10;;;;;;5041494;28;20977;-47
2022/03/31 07:06:12;;;;;;;4.13;3.47;;;14.20;73.10;;;;;;5051824;28;20461;-47
2022/03/31 07:08:40;;;;;;;4.70;4.00;;;14.20;73.10;;;;;;5037741;28;20458;-47
2022/03/31 07:11:10;;;;;;;5.20;4.40;;;14.30;73.00;;;;;;5032706;28;20558;-48
2022/03/31 07:13:38;;;;;;;3.50;2.83;;;14.30;73.10;;;;;;5032623;28;20921;-46
2022/03/31 07:16:07;;;;;;;4.50;3.90;;;14.30;73.10;;;;;;5031471;28;20476;-46
2022/03/31 07:18:35;;;;;;;3.97;3.33;;;14.20;73.10;;;;;;5032102;28;20850;-46
2022/03/31 07:21:05;;;;;;;3.70;3.10;;;14.20;73.10;;;;;;5030660;28;20467;-47
2022/03/31 07:23:33;;;;;;;3.47;3.17;;;14.20;73.10;;;;;;5032632;28;20470;-45
2022/03/31 07:26:02;;;;;;;3.80;3.40;;;14.20;73.20;;;;;;5041659;28;20826;-47
2022/03/31 07:28:30;;;;;;;4.80;4.40;;;14.20;73.20;;;;;;5052358;28;20515;-48
2022/03/31 07:30:58;;;;;;;4.80;3.20;;;14.20;73.30;;;;;;5050724;28;20501;-48
2022/03/31 07:33:26;;;;;;;3.90;3.40;;;14.20;73.30;;;;;;5032396;28;20838;-47
2022/03/31 07:35:55;;;;;;;3.50;3.10;;;14.20;73.30;;;;;;5031290;28;20460;-47
2022/03/31 07:38:24;;;;;;;3.33;3.03;;;14.20;73.40;;;;;;5031624;28;20447;-48
2022/03/31 07:40:53;;;;;;;4.30;3.90;;;14.20;73.30;;;;;;5031934;28;20641;-47
2022/03/31 07:43:21;;;;;;;3.70;3.20;;;14.20;73.30;;;;;;5051567;28;20482;-46
2022/03/31 07:45:49;;;;;;;4.47;3.23;;;14.20;73.30;;;;;;5041172;28;20467;-48
2022/03/31 07:48:18;;;;;;;4.13;3.70;;;14.20;73.30;;;;;;5031879;28;20527;-47
2022/03/31 07:50:46;;;;;;;5.40;3.50;;;14.20;73.40;;;;;;5039443;28;20459;-47
2022/03/31 07:53:17;;;;;;;4.43;3.50;;;14.10;73.20;;;;;;5039344;28;20462;-48
2022/03/31 07:55:46;;;;;;;4.33;3.87;;;14.10;73.30;;;;;;5047937;28;20462;-47
2022/03/31 07:58:14;;;;;;;3.80;3.40;;;14.10;73.20;;;;;;5052239;28;20447;-48
2022/03/31 08:00:43;;;;;;;3.90;3.50;;;14.10;73.20;;;;;;5051328;28;20463;-45
2022/03/31 08:03:11;;;;;;;4.57;3.37;;;14.10;73.30;;;;;;5038896;28;20908;-48
2022/03/31 08:05:40;;;;;;;4.00;3.53;;;14.10;73.20;;;;;;5031224;28;20478;-47
2022/03/31 08:08:08;;;;;;;3.37;3.07;;;14.10;73.20;;;;;;5031074;28;20502;-47
2022/03/31 08:10:36;;;;;;;4.80;3.20;;;14.10;73.20;;;;;;5036673;28;20462;-47
2022/03/31 08:13:06;;;;;;;3.40;3.10;;;14.10;73.30;;;;;;5051426;28;20801;-48
2022/03/31 08:15:36;;;;;;;4.53;3.40;;;14.10;73.30;;;;;;5030858;28;20537;-48
2022/03/31 08:18:05;;;;;;;4.37;3.50;;;14.10;73.30;;;;;;5031495;28;20428;-48
2022/03/31 08:20:33;;;;;;;4.33;3.30;;;14.10;73.40;;;;;;5030474;28;20483;-48
2022/03/31 08:23:02;;;;;;;3.43;3.10;;;14.10;73.30;;;;;;5031256;28;20874;-48
2022/03/31 08:25:30;;;;;;;3.83;3.50;;;14.10;73.50;;;;;;5027960;28;20514;-47
2022/03/31 08:27:58;;;;;;;4.10;3.70;;;14.10;73.40;;;;;;5036573;28;20439;-46
2022/03/31 08:30:32;;;;;;;3.70;3.30;;;14.10;73.40;;;;;;5030953;28;20471;-47
2022/03/31 08:33:00;;;;;;;3.27;3.00;;;14.10;73.40;;;;;;5030726;28;20462;-47
2022/03/31 08:35:28;;;;;;;4.23;3.77;;;14.10;73.40;;;;;;5030430;28;20498;-47
2022/03/31 08:37:56;;;;;;;4.03;3.33;;;14.10;73.50;;;;;;5033201;28;20442;-46
2022/03/31 08:40:25;;;;;;;3.43;3.13;;;14.10;73.40;;;;;;5030854;28;20476;-47
2022/03/31 08:42:55;;;;;;;3.40;3.10;;;14.00;73.50;;;;;;5030714;28;21043;-45
2022/03/31 08:45:23;;;;;;;4.20;3.10;;;14.00;73.40;;;;;;5037949;28;20472;-47
2022/03/31 08:47:54;;;;;;;4.20;3.60;;;14.00;73.40;;;;;;5051001;28;20445;-45
2022/03/31 08:50:23;;;;;;;3.47;2.87;;;14.00;73.40;;;;;;5043062;28;20471;-48
2022/03/31 08:52:53;;;;;;;4.53;3.40;;;14.00;73.40;;;;;;5035892;28;20434;-47
2022/03/31 08:55:23;;;;;;;3.57;3.30;;;14.00;73.40;;;;;;5050068;28;20466;-46
2022/03/31 08:57:54;;;;;;;3.37;3.07;;;14.00;73.50;;;;;;5050504;28;20729;-46
2022/03/31 09:00:24;;;;;;;3.20;2.90;;;14.00;73.40;;;;;;5049372;28;20475;-45
2022/03/31 09:02:55;;;;;;;4.00;3.40;;;14.00;73.40;;;;;;5035924;28;20542;-47
2022/03/31 09:05:24;;;;;;;3.60;3.30;;;14.00;73.50;;;;;;5029780;28;20482;-46
2022/03/31 09:07:53;;;;;;;3.20;2.90;;;14.00;73.40;;;;;;5036923;28;20450;-47
2022/03/31 09:10:33;;;;;;;3.30;2.90;;;14.00;73.40;;;;;;5044311;28;20564;-47
2022/03/31 09:13:04;;;;;;;4.13;3.40;;;14.00;73.40;;;;;;5042260;28;20442;-47
2022/03/31 09:15:34;;;;;;;3.80;3.50;;;14.00;73.40;;;;;;5049935;28;20469;-48
2022/03/31 09:18:03;;;;;;;4.33;3.20;;;14.00;73.50;;;;;;5033488;28;20458;-46
2022/03/31 09:20:39;;;;;;;3.87;3.10;;;13.90;73.40;;;;;;5045739;28;20525;-47
2022/03/31 09:23:08;;;;;;;3.43;3.13;;;14.00;74.80;;;;;;5029852;28;20569;-46
2022/03/31 09:25:37;;;;;;;3.27;2.97;;;14.00;73.60;;;;;;5037772;28;20461;-47
2022/03/31 09:28:16;;;;;;;3.83;3.00;;;13.90;73.50;;;;;;5050402;28;20441;-47
2022/03/31 09:30:45;;;;;;;2.80;2.60;;;13.90;73.40;;;;;;5049541;28;20491;-48
2022/03/31 09:33:25;;;;;;;3.30;3.00;;;13.90;73.50;;;;;;5030235;28;20486;-47
2022/03/31 09:36:02;;;;;;;4.00;3.60;;;13.90;73.60;;;;;;5042501;28;20460;-47
2022/03/31 09:38:32;;;;;;;4.13;3.40;;;13.90;73.60;;;;;;5040551;28;21020;-47
2022/03/31 09:41:01;;;;;;;3.63;3.27;;;13.90;73.50;;;;;;5034295;28;20470;-46
2022/03/31 09:43:39;;;;;;;3.33;3.03;;;13.90;73.40;;;;;;5033102;28;20450;-48
2022/03/31 09:46:18;;;;;;;3.27;2.97;;;13.90;74.80;;;;;;5033643;28;20497;-46
2022/03/31 09:48:49;;;;;;;3.30;3.00;;;13.90;74.80;;;;;;5034249;28;20446;-47
2022/03/31 09:51:18;;;;;;;3.80;3.50;;;13.90;73.60;;;;;;5034034;28;20566;-47
2022/03/31 09:53:48;;;;;;;3.67;3.30;;;13.90;73.60;;;;;;5033631;28;20497;-47
2022/03/31 09:56:18;;;;;;;3.93;3.63;;;13.90;73.60;;;;;;5033622;28;20488;-47
2022/03/31 09:58:48;;;;;;;3.40;2.80;;;13.90;73.60;;;;;;5047635;28;20528;-47
2022/03/31 10:01:18;;;;;;;4.30;3.90;;;13.90;73.60;;;;;;5052969;28;20472;-48
2022/03/31 10:03:49;;;;;;;3.50;3.20;;;13.90;73.60;;;;;;5036347;28;20564;-47
2022/03/31 10:06:17;;;;;;;4.40;3.37;;;13.80;73.60;;;;;;5032870;28;20473;-47
2022/03/31 10:08:47;;;;;;;3.87;3.37;;;13.80;73.60;;;;;;5033199;28;20442;-46
2022/03/31 10:11:20;;;;;;;4.70;4.30;;;13.80;73.60;;;;;;5033660;28;20464;-48
2022/03/31 10:14:11;;;;;;;3.57;3.20;;;13.80;73.50;;;;;;5033317;28;20460;-48
2022/03/31 10:16:48;;;;;;;3.30;2.80;;;13.80;73.50;;;;;;5038493;28;20761;-47
2022/03/31 10:19:29;;;;;;;3.53;3.23;;;13.80;73.60;;;;;;5052552;28;20494;-47
2022/03/31 10:21:59;;;;;;;2.80;2.60;;;13.80;73.60;;;;;;5052405;28;20512;-48
2022/03/31 10:24:44;;;;;;;4.00;3.60;;;13.80;73.70;;;;;;5032316;28;20513;-47
2022/03/31 10:27:26;;;;;;;3.47;3.13;;;13.80;73.60;;;;;;5034047;28;20523;-47
2022/03/31 10:29:55;;;;;;;3.43;2.80;;;13.80;73.70;;;;;;5046510;28;20485;-45
2022/03/31 10:32:25;;;;;;;3.70;3.00;;;13.80;73.60;;;;;;5052144;28;21025;-47
2022/03/31 10:34:55;;;;;;;3.30;3.00;;;13.80;73.60;;;;;;5047669;28;20472;-47
2022/03/31 10:37:34;;;;;;;4.20;3.17;;;13.80;73.60;;;;;;5033639;28;20449;-47
2022/03/31 10:40:05;;;;;;;4.20;3.33;;;13.80;73.80;;;;;;5048502;28;20986;-48
2022/03/31 10:42:33;;;;;;;3.90;3.23;;;13.80;73.80;;;;;;5053153;28;20898;-47
2022/03/31 10:45:07;;;;;;;4.30;3.60;;;13.80;73.70;;;;;;5051938;28;20937;-48
2022/03/31 10:47:36;;;;;;;3.50;3.10;;;13.80;73.70;;;;;;5036523;28;20551;-46
2022/03/31 10:50:08;;;;;;;3.43;3.13;;;13.80;73.70;;;;;;5048253;28;20478;-45
2022/03/31 10:52:37;;;;;;;3.77;3.23;;;13.70;73.70;;;;;;5049920;28;20448;-47
2022/03/31 10:55:14;;;;;;;3.70;3.33;;;13.70;73.70;;;;;;5048002;28;20733;-46
2022/03/31 10:57:45;;;;;;;2.90;2.70;;;13.80;73.80;;;;;;5032625;28;20491;-48
2022/03/31 11:00:15;;;;;;;3.37;2.70;;;13.70;73.70;;;;;;5043558;28;20488;-45
2022/03/31 11:02:45;;;;;;;3.50;3.20;;;13.70;73.60;;;;;;5041304;28;20446;-46
2022/03/31 11:05:39;;;;;;;3.47;3.17;;;13.70;73.80;;;;;;5033046;28;20464;-47
2022/03/31 11:08:08;;;;;;;3.47;3.17;;;13.70;73.70;;;;;;5031880;28;20840;-47
2022/03/31 11:10:43;;;;;;;3.17;2.80;;;13.70;73.80;;;;;;5046589;28;20481;-46
2022/03/31 11:13:11;;;;;;;3.60;3.23;;;13.70;73.80;;;;;;5052863;28;20479;-46
2022/03/31 11:15:40;;;;;;;3.37;3.07;;;13.70;73.90;;;;;;5050971;28;20460;-48
2022/03/31 11:18:08;;;;;;;3.53;3.10;;;13.70;73.90;;;;;;5042423;28;20445;-47
2022/03/31 11:20:37;;;;;;;3.40;3.10;;;13.70;73.80;;;;;;5031952;28;20515;-47
2022/03/31 11:23:07;;;;;;;3.20;2.90;;;13.70;74.00;;;;;;5030016;28;20466;-47
2022/03/31 11:25:36;;;;;;;3.30;3.10;;;13.70;73.90;;;;;;5031418;28;20981;-47
2022/03/31 11:28:10;;;;;;;3.30;3.00;;;13.60;73.80;;;;;;5035436;28;20429;-47
2022/03/31 11:30:39;;;;;;;3.70;3.40;;;13.60;73.80;;;;;;5046813;28;20459;-46
2022/03/31 11:33:10;;;;;;;4.30;3.90;;;13.70;73.80;;;;;;5032388;28;20955;-46
2022/03/31 11:35:41;;;;;;;5.10;4.60;;;13.60;73.70;;;;;;5031293;28;20545;-46
2022/03/31 11:38:12;;;;;;;4.00;3.70;;;13.60;73.70;;;;;;5031746;28;20520;-46
2022/03/31 11:40:43;;;;;;;5.73;3.73;;;13.60;73.90;;;;;;5031912;28;20593;-46
2022/03/31 11:43:13;;;;;;;3.77;3.43;;;13.60;73.80;;;;;;5032274;28;20449;-45
2022/03/31 11:45:44;;;;;;;4.90;4.50;;;13.60;74.00;;;;;;5031060;28;20547;-47
2022/03/31 11:48:14;;;;;;;4.80;4.17;;;13.60;73.70;;;;;;5039000;28;20880;-48
2022/03/31 11:50:52;;;;;;;3.60;3.30;;;13.60;73.80;;;;;;5051564;28;20476;-50
2022/03/31 11:53:37;;;;;;;4.77;4.30;;;13.60;73.90;;;;;;5030379;28;20580;-47
2022/03/31 11:56:09;;;;;;;4.97;4.47;;;13.60;73.90;;;;;;5030739;28;20640;-46
2022/03/31 11:58:44;;;;;;;4.03;3.53;;;13.60;73.90;;;;;;5039709;28;20439;-49
2022/03/31 12:01:13;;;;;;;4.13;3.73;;;13.60;74.00;;;;;;5046818;28;20497;-48
2022/03/31 12:03:41;;;;;;;3.43;3.13;;;13.60;74.00;;;;;;5031059;28;20480;-48
2022/03/31 12:06:13;;;;;;;4.40;4.00;;;13.50;74.00;;;;;;5031342;28;20472;-47
2022/03/31 12:08:43;;;;;;;4.37;3.97;;;13.50;74.00;;;;;;5032462;28;20453;-46
2022/03/31 12:11:12;;;;;;;4.47;4.07;;;13.50;73.80;;;;;;5031494;28;20484;-47
2022/03/31 12:13:48;;;;;;;4.00;3.30;;;13.50;73.90;;;;;;5034780;28;21008;-46
2022/03/31 12:16:17;;;;;;;4.27;3.87;;;13.50;73.80;;;;;;5031666;28;20481;-47
2022/03/31 12:18:52;;;;;;;4.50;3.90;;;13.50;75.20;;;;;;5031258;28;20452;-48
2022/03/31 12:21:23;;;;;;;4.80;4.33;;;13.50;73.80;;;;;;5043669;28;20559;-48
2022/03/31 12:23:52;;;;;;;4.30;3.63;;;13.50;74.10;;;;;;5035620;28;20466;-47
2022/03/31 12:26:39;;;;;;;4.67;4.10;;;13.50;74.10;;;;;;5046638;28;20515;-48
2022/03/31 12:29:18;;;;;;;5.03;4.10;;;13.50;74.00;;;;;;5050736;28;20993;-47
2022/03/31 12:31:47;;;;;;;4.20;3.80;;;13.50;74.00;;;;;;5037787;28;20871;-46
2022/03/31 12:34:15;;;;;;;5.70;5.20;;;13.50;74.00;;;;;;5041236;28;20572;-47
2022/03/31 12:36:49;;;;;;;4.13;3.73;;;13.40;73.90;;;;;;5044999;28;20958;-45
2022/03/31 12:39:17;;;;;;;4.20;3.80;;;13.50;74.20;;;;;;5033571;28;20975;-48
2022/03/31 12:41:51;;;;;;;4.90;4.40;;;13.40;74.10;;;;;;5050868;28;20554;-46
2022/03/31 12:44:22;;;;;;;4.43;4.03;;;13.50;74.00;;;;;;5039267;28;20511;-47
2022/03/31 12:46:55;;;;;;;5.07;4.57;;;13.40;73.90;;;;;;5042311;28;20462;-46
2022/03/31 12:49:26;;;;;;;5.27;4.00;;;13.50;74.20;;;;;;5040539;28;20437;-47
2022/03/31 12:51:58;;;;;;;4.13;3.73;;;13.40;74.10;;;;;;5030225;28;20494;-46
2022/03/31 12:54:29;;;;;;;4.43;4.03;;;13.50;74.20;;;;;;5029197;28;20832;-48
2022/03/31 12:56:58;;;;;;;4.47;4.03;;;13.40;74.20;;;;;;5043410;28;20478;-48
2022/03/31 12:59:30;;;;;;;4.30;3.50;;;13.40;74.20;;;;;;5035426;28;20436;-46
2022/03/31 13:02:00;;;;;;;4.43;4.03;;;13.40;74.10;;;;;;5043420;28;20507;-48
2022/03/31 13:04:29;;;;;;;4.00;3.70;;;13.40;74.10;;;;;;5030125;28;20457;-47